sensor_id;sensor_type;location;lat;lon;timestamp;pressure;altitude;pressure_sealevel;temperature;humidity
41467;BME280;27205;53.690;19.948;2023-01-13T00:04:28;99140.64;;;8.58;85.48
41467;BME280;27205;53.690;19.948;2023-01-13T00:09:32;99130.63;;;8.59;85.26
41467;BME280;27205;53.690;19.948;2023-01-13T00:14:35;99120.72;;;8.58;85.51
41467;BME280;27205;53.690;19.948;2023-01-13T00:19:39;99115.17;;;8.58;85.42
41467;BME280;27205;53.690;19.948;2023-01-13T00:24:42;99111.33;;;8.57;85.83
41467;BME280;27205;53.690;19.948;2023-01-13T00:29:46;99114.27;;;8.56;85.87
41467;BME280;27205;53.690;19.948;2023-01-13T00:34:49;99120.96;;;8.58;85.84
41467;BME280;27205;53.690;19.948;2023-01-13T00:39:53;99119.74;;;8.56;86.06
41467;BME280;27205;53.690;19.948;2023-01-13T00:44:57;99117.58;;;8.54;86.19
41467;BME280;27205;53.690;19.948;2023-01-13T00:50:00;99113.52;;;8.52;86.37
41467;BME280;27205;53.690;19.948;2023-01-13T00:55:04;99108.69;;;8.48;86.51
41467;BME280;27205;53.690;19.948;2023-01-13T01:00:08;99102.39;;;8.44;86.57
41467;BME280;27205;53.690;19.948;2023-01-13T01:05:12;99103.63;;;8.44;86.94
41467;BME280;27205;53.690;19.948;2023-01-13T01:10:16;99091.76;;;8.43;86.84
41467;BME280;27205;53.690;19.948;2023-01-13T01:15:19;99092.93;;;8.42;87.13
41467;BME280;27205;53.690;19.948;2023-01-13T01:20:23;99087.23;;;8.42;87.06
41467;BME280;27205;53.690;19.948;2023-01-13T01:25:26;99080.89;;;8.44;87.36
41467;BME280;27205;53.690;19.948;2023-01-13T01:30:30;99076.68;;;8.43;87.49
41467;BME280;27205;53.690;19.948;2023-01-13T01:35:38;99067.92;;;8.44;87.88
41467;BME280;27205;53.690;19.948;2023-01-13T01:40:41;99061.02;;;8.47;87.83
41467;BME280;27205;53.690;19.948;2023-01-13T01:45:45;99059.27;;;8.46;87.85
41467;BME280;27205;53.690;19.948;2023-01-13T01:50:48;99056.16;;;8.48;88.11
41467;BME280;27205;53.690;19.948;2023-01-13T01:55:53;99052.58;;;8.46;87.99
41467;BME280;27205;53.690;19.948;2023-01-13T02:00:58;99042.56;;;8.37;88.47
41467;BME280;27205;53.690;19.948;2023-01-13T02:06:02;99032.84;;;8.34;88.74
41467;BME280;27205;53.690;19.948;2023-01-13T02:11:05;99029.30;;;8.35;88.75
41467;BME280;27205;53.690;19.948;2023-01-13T02:16:30;99023.27;;;8.27;88.90
41467;BME280;27205;53.690;19.948;2023-01-13T02:38:27;99004.30;;;8.12;89.98
41467;BME280;27205;53.690;19.948;2023-01-13T02:43:35;99002.47;;;8.09;89.96
41467;BME280;27205;53.690;19.948;2023-01-13T02:49:04;98997.40;;;8.07;90.52
41467;BME280;27205;53.690;19.948;2023-01-13T02:54:13;98991.15;;;8.06;90.73
41467;BME280;27205;53.690;19.948;2023-01-13T02:59:21;98987.47;;;8.07;90.81
41467;BME280;27205;53.690;19.948;2023-01-13T03:09:56;98972.69;;;8.05;91.28
41467;BME280;27205;53.690;19.948;2023-01-13T03:15:20;98966.64;;;8.05;91.79
41467;BME280;27205;53.690;19.948;2023-01-13T03:20:31;98965.10;;;8.05;91.98
41467;BME280;27205;53.690;19.948;2023-01-13T03:26:07;98963.13;;;8.10;91.91
41467;BME280;27205;53.690;19.948;2023-01-13T03:31:18;98960.80;;;8.11;92.29
41467;BME280;27205;53.690;19.948;2023-01-13T03:36:35;98954.94;;;8.13;92.50
41467;BME280;27205;53.690;19.948;2023-01-13T03:41:55;98952.50;;;8.13;92.59
41467;BME280;27205;53.690;19.948;2023-01-13T03:52:10;98946.47;;;8.17;93.27
41467;BME280;27205;53.690;19.948;2023-01-13T03:57:18;98944.20;;;8.19;93.27
41467;BME280;27205;53.690;19.948;2023-01-13T04:12:55;98936.36;;;8.18;94.01
41467;BME280;27205;53.690;19.948;2023-01-13T04:23:21;98930.82;;;8.21;94.32
41467;BME280;27205;53.690;19.948;2023-01-13T04:28:25;98924.61;;;8.23;94.46
41467;BME280;27205;53.690;19.948;2023-01-13T04:33:28;98921.95;;;8.25;94.70
41467;BME280;27205;53.690;19.948;2023-01-13T04:38:32;98915.61;;;8.24;95.16
41467;BME280;27205;53.690;19.948;2023-01-13T04:43:35;98916.84;;;8.23;95.27
41467;BME280;27205;53.690;19.948;2023-01-13T04:48:39;98925.45;;;8.22;95.32
41467;BME280;27205;53.690;19.948;2023-01-13T04:53:42;98926.48;;;8.26;95.27
41467;BME280;27205;53.690;19.948;2023-01-13T04:58:46;98922.67;;;8.28;95.71
41467;BME280;27205;53.690;19.948;2023-01-13T05:03:49;98920.06;;;8.27;96.00
41467;BME280;27205;53.690;19.948;2023-01-13T05:08:53;98923.01;;;8.26;96.30
41467;BME280;27205;53.690;19.948;2023-01-13T05:13:56;98918.70;;;8.26;96.41
41467;BME280;27205;53.690;19.948;2023-01-13T05:19:18;98918.27;;;8.26;96.64
41467;BME280;27205;53.690;19.948;2023-01-13T05:24:22;98915.72;;;8.25;96.68
41467;BME280;27205;53.690;19.948;2023-01-13T05:29:44;98916.95;;;8.24;97.05
41467;BME280;27205;53.690;19.948;2023-01-13T05:34:48;98917.09;;;8.24;97.01
41467;BME280;27205;53.690;19.948;2023-01-13T05:39:52;98919.07;;;8.27;96.98
41467;BME280;27205;53.690;19.948;2023-01-13T05:45:15;98923.80;;;8.29;97.21
41467;BME280;27205;53.690;19.948;2023-01-13T05:50:18;98925.09;;;8.30;97.26
41467;BME280;27205;53.690;19.948;2023-01-13T05:55:22;98922.03;;;8.31;97.32
41467;BME280;27205;53.690;19.948;2023-01-13T06:00:25;98926.73;;;8.33;97.22
41467;BME280;27205;53.690;19.948;2023-01-13T06:05:29;98926.80;;;8.34;97.26
41467;BME280;27205;53.690;19.948;2023-01-13T06:10:34;98927.27;;;8.34;97.52
41467;BME280;27205;53.690;19.948;2023-01-13T06:15:38;98931.85;;;8.35;97.44
41467;BME280;27205;53.690;19.948;2023-01-13T06:20:41;98928.09;;;8.33;97.72
41467;BME280;27205;53.690;19.948;2023-01-13T06:25:59;98927.30;;;8.34;97.75
41467;BME280;27205;53.690;19.948;2023-01-13T06:31:06;98929.74;;;8.35;98.23
41467;BME280;27205;53.690;19.948;2023-01-13T06:36:18;98932.71;;;8.35;98.64
41467;BME280;27205;53.690;19.948;2023-01-13T06:41:25;98929.84;;;8.37;98.50
41467;BME280;27205;53.690;19.948;2023-01-13T06:46:50;98931.54;;;8.37;98.55
41467;BME280;27205;53.690;19.948;2023-01-13T06:51:53;98942.77;;;8.39;98.73
41467;BME280;27205;53.690;19.948;2023-01-13T06:56:57;98937.73;;;8.39;98.77
41467;BME280;27205;53.690;19.948;2023-01-13T07:02:01;98945.45;;;8.41;99.15
41467;BME280;27205;53.690;19.948;2023-01-13T07:07:05;98948.95;;;8.45;99.17
41467;BME280;27205;53.690;19.948;2023-01-13T07:12:10;98953.30;;;8.46;99.34
41467;BME280;27205;53.690;19.948;2023-01-13T07:17:14;98955.58;;;8.49;99.56
41467;BME280;27205;53.690;19.948;2023-01-13T07:22:17;98958.79;;;8.49;99.66
41467;BME280;27205;53.690;19.948;2023-01-13T07:27:21;98963.07;;;8.52;99.84
41467;BME280;27205;53.690;19.948;2023-01-13T07:32:24;98970.30;;;8.56;99.85
41467;BME280;27205;53.690;19.948;2023-01-13T07:37:28;98968.65;;;8.55;99.95
41467;BME280;27205;53.690;19.948;2023-01-13T07:42:31;98966.17;;;8.57;99.89
41467;BME280;27205;53.690;19.948;2023-01-13T07:47:54;98970.02;;;8.58;100.00
41467;BME280;27205;53.690;19.948;2023-01-13T07:52:57;98973.50;;;8.60;99.93
41467;BME280;27205;53.690;19.948;2023-01-13T07:58:01;98977.86;;;8.62;99.96
41467;BME280;27205;53.690;19.948;2023-01-13T08:03:05;98978.59;;;8.63;99.99
41467;BME280;27205;53.690;19.948;2023-01-13T08:08:08;98984.91;;;8.68;100.00
41467;BME280;27205;53.690;19.948;2023-01-13T08:13:15;98994.51;;;8.71;99.99
41467;BME280;27205;53.690;19.948;2023-01-13T08:18:23;98991.05;;;8.74;100.00
41467;BME280;27205;53.690;19.948;2023-01-13T08:23:26;98990.59;;;8.77;100.00
41467;BME280;27205;53.690;19.948;2023-01-13T08:28:30;98998.43;;;8.84;100.00
41467;BME280;27205;53.690;19.948;2023-01-13T08:33:34;99002.65;;;8.87;100.00
41467;BME280;27205;53.690;19.948;2023-01-13T08:38:38;99007.48;;;8.93;100.00
41467;BME280;27205;53.690;19.948;2023-01-13T08:43:41;99009.67;;;8.98;100.00
41467;BME280;27205;53.690;19.948;2023-01-13T08:48:45;99010.90;;;9.04;100.00
41467;BME280;27205;53.690;19.948;2023-01-13T08:53:48;99013.98;;;9.08;100.00
41467;BME280;27205;53.690;19.948;2023-01-13T08:58:52;99021.91;;;9.10;100.00
41467;BME280;27205;53.690;19.948;2023-01-13T09:03:55;99031.77;;;9.11;100.00
41467;BME280;27205;53.690;19.948;2023-01-13T09:08:59;99029.83;;;9.12;100.00
41467;BME280;27205;53.690;19.948;2023-01-13T09:14:04;99033.55;;;9.11;100.00
41467;BME280;27205;53.690;19.948;2023-01-13T09:19:08;99029.61;;;9.10;100.00
41467;BME280;27205;53.690;19.948;2023-01-13T09:24:11;99026.55;;;9.11;100.00
41467;BME280;27205;53.690;19.948;2023-01-13T09:29:15;99024.36;;;9.14;100.00
41467;BME280;27205;53.690;19.948;2023-01-13T09:34:19;99023.20;;;9.19;100.00
41467;BME280;27205;53.690;19.948;2023-01-13T09:39:41;99020.36;;;9.23;100.00
41467;BME280;27205;53.690;19.948;2023-01-13T09:45:03;99015.52;;;9.32;100.00
41467;BME280;27205;53.690;19.948;2023-01-13T09:55:24;99022.66;;;9.55;100.00
41467;BME280;27205;53.690;19.948;2023-01-13T10:00:47;99018.16;;;9.65;100.00
41467;BME280;27205;53.690;19.948;2023-01-13T10:06:00;99015.06;;;9.65;100.00
41467;BME280;27205;53.690;19.948;2023-01-13T10:11:21;99006.75;;;9.63;100.00
41467;BME280;27205;53.690;19.948;2023-01-13T10:22:53;98989.33;;;9.66;100.00
41467;BME280;27205;53.690;19.948;2023-01-13T10:28:13;98987.73;;;9.64;99.99
41467;BME280;27205;53.690;19.948;2023-01-13T10:33:24;98992.30;;;9.68;100.00
41467;BME280;27205;53.690;19.948;2023-01-13T10:38:41;98989.98;;;9.72;100.00
41467;BME280;27205;53.690;19.948;2023-01-13T10:49:00;98999.55;;;9.85;99.85
41467;BME280;27205;53.690;19.948;2023-01-13T10:54:19;98997.59;;;9.89;99.86
41467;BME280;27205;53.690;19.948;2023-01-13T10:59:25;99004.25;;;9.91;99.80
41467;BME280;27205;53.690;19.948;2023-01-13T11:09:34;99000.48;;;9.83;99.66
41467;BME280;27205;53.690;19.948;2023-01-13T11:14:40;98994.13;;;9.82;99.52
41467;BME280;27205;53.690;19.948;2023-01-13T11:20:19;98991.10;;;9.85;99.59
41467;BME280;27205;53.690;19.948;2023-01-13T11:25:32;98997.42;;;9.87;99.55
41467;BME280;27205;53.690;19.948;2023-01-13T11:31:00;98998.51;;;9.86;99.71
41467;BME280;27205;53.690;19.948;2023-01-13T11:36:16;98996.23;;;9.88;99.59
41467;BME280;27205;53.690;19.948;2023-01-13T11:41:46;98994.02;;;9.92;99.47
41467;BME280;27205;53.690;19.948;2023-01-13T11:47:12;98993.90;;;9.96;99.48
41467;BME280;27205;53.690;19.948;2023-01-13T11:52:20;98990.55;;;9.91;99.49
41467;BME280;27205;53.690;19.948;2023-01-13T12:08:22;98999.58;;;9.82;99.15
41467;BME280;27205;53.690;19.948;2023-01-13T12:24:17;98998.19;;;9.78;98.88
41467;BME280;27205;53.690;19.948;2023-01-13T12:29:36;98999.13;;;9.77;98.58
41467;BME280;27205;53.690;19.948;2023-01-13T12:45:32;99004.48;;;9.68;98.61
41467;BME280;27205;53.690;19.948;2023-01-13T12:50:36;99004.11;;;9.63;98.48
41467;BME280;27205;53.690;19.948;2023-01-13T12:55:42;99003.09;;;9.62;98.68
41467;BME280;27205;53.690;19.948;2023-01-13T13:16:44;99013.52;;;9.65;98.45
41467;BME280;27205;53.690;19.948;2023-01-13T13:43:44;99025.82;;;9.76;98.40
41467;BME280;27205;53.690;19.948;2023-01-13T13:49:06;99026.02;;;9.81;98.37
41467;BME280;27205;53.690;19.948;2023-01-13T13:54:12;99030.27;;;9.83;98.36
41467;BME280;27205;53.690;19.948;2023-01-13T13:59:25;99036.09;;;9.83;98.31
41467;BME280;27205;53.690;19.948;2023-01-13T14:04:33;99037.83;;;9.83;98.36
41467;BME280;27205;53.690;19.948;2023-01-13T14:09:44;99033.82;;;9.82;98.44
41467;BME280;27205;53.690;19.948;2023-01-13T14:14:56;99028.46;;;9.80;98.40
41467;BME280;27205;53.690;19.948;2023-01-13T14:20:05;99033.15;;;9.80;98.49
41467;BME280;27205;53.690;19.948;2023-01-13T14:30:32;99032.71;;;9.70;98.46
41467;BME280;27205;53.690;19.948;2023-01-13T14:35:36;99034.83;;;9.68;98.60
41467;BME280;27205;53.690;19.948;2023-01-13T14:40:40;99042.80;;;9.65;98.52
41467;BME280;27205;53.690;19.948;2023-01-13T14:45:56;99047.61;;;9.56;98.77
41467;BME280;27205;53.690;19.948;2023-01-13T14:51:09;99039.70;;;9.51;98.74
41467;BME280;27205;53.690;19.948;2023-01-13T14:56:50;99031.48;;;9.50;98.70
41467;BME280;27205;53.690;19.948;2023-01-13T15:01:56;99031.45;;;9.45;98.80
41467;BME280;27205;53.690;19.948;2023-01-13T15:07:00;99038.20;;;9.41;98.84
41467;BME280;27205;53.690;19.948;2023-01-13T15:12:23;99041.61;;;9.38;98.79
41467;BME280;27205;53.690;19.948;2023-01-13T15:17:30;99044.34;;;9.36;98.92
41467;BME280;27205;53.690;19.948;2023-01-13T15:22:34;99043.96;;;9.33;98.86
41467;BME280;27205;53.690;19.948;2023-01-13T15:27:38;99046.15;;;9.29;99.02
41467;BME280;27205;53.690;19.948;2023-01-13T15:32:42;99047.35;;;9.29;98.98
41467;BME280;27205;53.690;19.948;2023-01-13T15:37:47;99049.75;;;9.29;99.08
41467;BME280;27205;53.690;19.948;2023-01-13T15:42:50;99053.34;;;9.28;99.04
41467;BME280;27205;53.690;19.948;2023-01-13T15:48:12;99055.36;;;9.30;99.05
41467;BME280;27205;53.690;19.948;2023-01-13T15:53:16;99059.17;;;9.31;99.20
41467;BME280;27205;53.690;19.948;2023-01-13T15:58:23;99056.75;;;9.29;99.26
41467;BME280;27205;53.690;19.948;2023-01-13T16:03:30;99061.23;;;9.24;99.35
41467;BME280;27205;53.690;19.948;2023-01-13T16:08:37;99061.89;;;9.20;99.32
41467;BME280;27205;53.690;19.948;2023-01-13T16:13:42;99051.98;;;9.14;99.45
41467;BME280;27205;53.690;19.948;2023-01-13T16:18:46;99050.52;;;9.14;99.41
41467;BME280;27205;53.690;19.948;2023-01-13T16:23:50;99046.09;;;9.11;99.31
41467;BME280;27205;53.690;19.948;2023-01-13T16:28:56;99049.57;;;9.10;99.48
41467;BME280;27205;53.690;19.948;2023-01-13T16:34:01;99047.34;;;9.08;99.46
41467;BME280;27205;53.690;19.948;2023-01-13T16:39:18;99048.48;;;9.06;99.60
41467;BME280;27205;53.690;19.948;2023-01-13T16:44:22;99057.85;;;9.05;99.34
41467;BME280;27205;53.690;19.948;2023-01-13T16:49:26;99067.23;;;9.05;99.46
41467;BME280;27205;53.690;19.948;2023-01-13T16:54:29;99075.35;;;9.02;99.39
41467;BME280;27205;53.690;19.948;2023-01-13T16:59:32;99068.23;;;9.01;99.26
41467;BME280;27205;53.690;19.948;2023-01-13T17:04:36;99071.45;;;8.98;99.34
41467;BME280;27205;53.690;19.948;2023-01-13T17:09:39;99076.81;;;8.92;99.31
41467;BME280;27205;53.690;19.948;2023-01-13T17:14:43;99069.70;;;8.91;99.30
41467;BME280;27205;53.690;19.948;2023-01-13T17:19:46;99073.14;;;8.90;99.26
41467;BME280;27205;53.690;19.948;2023-01-13T17:24:50;99073.73;;;8.87;99.19
41467;BME280;27205;53.690;19.948;2023-01-13T17:29:53;99077.24;;;8.81;99.25
41467;BME280;27205;53.690;19.948;2023-01-13T17:34:57;99079.73;;;8.80;99.11
41467;BME280;27205;53.690;19.948;2023-01-13T17:40:04;99090.17;;;8.81;99.12
41467;BME280;27205;53.690;19.948;2023-01-13T17:45:08;99080.80;;;8.84;98.98
41467;BME280;27205;53.690;19.948;2023-01-13T17:50:15;99084.88;;;8.83;98.79
41467;BME280;27205;53.690;19.948;2023-01-13T17:55:19;99076.29;;;8.77;98.94
41467;BME280;27205;53.690;19.948;2023-01-13T18:00:22;99087.84;;;8.71;99.07
41467;BME280;27205;53.690;19.948;2023-01-13T18:05:26;99087.38;;;8.67;98.91
41467;BME280;27205;53.690;19.948;2023-01-13T18:10:31;99091.89;;;8.65;98.88
41467;BME280;27205;53.690;19.948;2023-01-13T18:15:35;99102.69;;;8.69;98.72
41467;BME280;27205;53.690;19.948;2023-01-13T18:20:38;99101.17;;;8.71;98.76
41467;BME280;27205;53.690;19.948;2023-01-13T18:26:15;99102.98;;;8.70;98.72
41467;BME280;27205;53.690;19.948;2023-01-13T18:31:38;99100.58;;;8.72;98.67
41467;BME280;27205;53.690;19.948;2023-01-13T18:36:41;99115.35;;;8.72;98.36
41467;BME280;27205;53.690;19.948;2023-01-13T18:41:44;99119.33;;;8.71;98.40
41467;BME280;27205;53.690;19.948;2023-01-13T18:47:07;99119.83;;;8.65;98.62
41467;BME280;27205;53.690;19.948;2023-01-13T18:52:10;99125.52;;;8.58;98.38
41467;BME280;27205;53.690;19.948;2023-01-13T18:57:15;99133.36;;;8.46;98.12
41467;BME280;27205;53.690;19.948;2023-01-13T19:02:19;99136.65;;;8.40;97.91
41467;BME280;27205;53.690;19.948;2023-01-13T19:07:23;99135.02;;;8.35;98.05
41467;BME280;27205;53.690;19.948;2023-01-13T19:12:30;99148.25;;;8.27;97.95
41467;BME280;27205;53.690;19.948;2023-01-13T19:17:35;99149.66;;;8.19;97.89
41467;BME280;27205;53.690;19.948;2023-01-13T19:22:39;99158.65;;;8.15;97.78
41467;BME280;27205;53.690;19.948;2023-01-13T19:27:42;99166.96;;;8.17;97.99
41467;BME280;27205;53.690;19.948;2023-01-13T19:32:46;99167.18;;;8.20;97.76
41467;BME280;27205;53.690;19.948;2023-01-13T19:37:49;99173.06;;;8.20;97.79
41467;BME280;27205;53.690;19.948;2023-01-13T19:42:53;99171.95;;;8.19;97.66
41467;BME280;27205;53.690;19.948;2023-01-13T19:48:15;99175.67;;;8.11;97.24
41467;BME280;27205;53.690;19.948;2023-01-13T19:53:19;99175.02;;;8.00;97.26
41467;BME280;27205;53.690;19.948;2023-01-13T19:58:24;99174.44;;;7.83;97.01
41467;BME280;27205;53.690;19.948;2023-01-13T20:03:28;99172.04;;;7.63;97.53
41467;BME280;27205;53.690;19.948;2023-01-13T20:08:37;99181.87;;;7.49;97.19
41467;BME280;27205;53.690;19.948;2023-01-13T20:13:40;99191.16;;;7.34;97.05
41467;BME280;27205;53.690;19.948;2023-01-13T20:18:49;99194.04;;;7.20;96.84
41467;BME280;27205;53.690;19.948;2023-01-13T20:23:53;99198.05;;;7.07;96.80
41467;BME280;27205;53.690;19.948;2023-01-13T20:28:57;99199.76;;;6.98;96.68
41467;BME280;27205;53.690;19.948;2023-01-13T20:34:00;99201.91;;;6.82;97.07
41467;BME280;27205;53.690;19.948;2023-01-13T20:39:05;99205.98;;;6.75;96.82
41467;BME280;27205;53.690;19.948;2023-01-13T20:44:12;99208.83;;;6.63;96.90
41467;BME280;27205;53.690;19.948;2023-01-13T20:49:16;99212.44;;;6.51;96.93
41467;BME280;27205;53.690;19.948;2023-01-13T20:54:20;99215.83;;;6.43;97.29
41467;BME280;27205;53.690;19.948;2023-01-13T20:59:23;99224.66;;;6.37;97.34
41467;BME280;27205;53.690;19.948;2023-01-13T21:04:27;99219.92;;;6.34;97.34
41467;BME280;27205;53.690;19.948;2023-01-13T21:09:31;99219.86;;;6.32;97.23
41467;BME280;27205;53.690;19.948;2023-01-13T21:14:34;99221.35;;;6.30;97.04
41467;BME280;27205;53.690;19.948;2023-01-13T21:19:57;99222.05;;;6.25;97.01
41467;BME280;27205;53.690;19.948;2023-01-13T21:25:01;99220.95;;;6.22;96.97
41467;BME280;27205;53.690;19.948;2023-01-13T21:30:06;99229.35;;;6.21;96.97
41467;BME280;27205;53.690;19.948;2023-01-13T21:35:09;99237.06;;;6.19;97.06
41467;BME280;27205;53.690;19.948;2023-01-13T21:40:13;99237.10;;;6.22;97.09
41467;BME280;27205;53.690;19.948;2023-01-13T21:45:17;99239.39;;;6.26;96.99
41467;BME280;27205;53.690;19.948;2023-01-13T21:50:40;99230.84;;;6.26;97.00
41467;BME280;27205;53.690;19.948;2023-01-13T21:55:49;99228.01;;;6.26;97.15
41467;BME280;27205;53.690;19.948;2023-01-13T22:00:53;99232.38;;;6.28;97.19
41467;BME280;27205;53.690;19.948;2023-01-13T22:05:57;99226.69;;;6.27;97.20
41467;BME280;27205;53.690;19.948;2023-01-13T22:11:01;99226.67;;;6.23;97.22
41467;BME280;27205;53.690;19.948;2023-01-13T22:16:05;99231.16;;;6.14;97.16
41467;BME280;27205;53.690;19.948;2023-01-13T22:21:11;99227.90;;;6.06;97.27
41467;BME280;27205;53.690;19.948;2023-01-13T22:26:14;99232.36;;;5.98;97.37
41467;BME280;27205;53.690;19.948;2023-01-13T22:31:21;99238.77;;;5.94;97.24
41467;BME280;27205;53.690;19.948;2023-01-13T22:36:25;99237.55;;;5.85;97.51
41467;BME280;27205;53.690;19.948;2023-01-13T22:41:29;99246.23;;;5.79;97.36
41467;BME280;27205;53.690;19.948;2023-01-13T22:46:33;99252.66;;;5.74;97.45
41467;BME280;27205;53.690;19.948;2023-01-13T22:51:38;99254.64;;;5.68;97.56
41467;BME280;27205;53.690;19.948;2023-01-13T22:56:42;99259.30;;;5.63;97.51
41467;BME280;27205;53.690;19.948;2023-01-13T23:01:45;99260.23;;;5.61;97.43
41467;BME280;27205;53.690;19.948;2023-01-13T23:06:49;99261.98;;;5.57;97.45
41467;BME280;27205;53.690;19.948;2023-01-13T23:11:52;99261.42;;;5.53;97.48
41467;BME280;27205;53.690;19.948;2023-01-13T23:16:56;99262.27;;;5.53;97.61
41467;BME280;27205;53.690;19.948;2023-01-13T23:22:00;99267.48;;;5.58;97.69
41467;BME280;27205;53.690;19.948;2023-01-13T23:27:03;99262.73;;;5.65;97.85
41467;BME280;27205;53.690;19.948;2023-01-13T23:32:06;99261.81;;;5.74;98.06
41467;BME280;27205;53.690;19.948;2023-01-13T23:37:10;99252.80;;;5.81;97.97
41467;BME280;27205;53.690;19.948;2023-01-13T23:42:13;99254.16;;;5.87;98.29
41467;BME280;27205;53.690;19.948;2023-01-13T23:47:17;99249.02;;;5.94;98.39
41467;BME280;27205;53.690;19.948;2023-01-13T23:52:20;99246.09;;;6.00;98.34
41467;BME280;27205;53.690;19.948;2023-01-13T23:57:24;99249.02;;;6.05;98.20
